sensor_id;sensor_type;location;lat;lon;timestamp;pressure;altitude;pressure_sealevel;temperature;humidity
49393;BME280;35268;42.642;23.308;2022-08-19T00:01:21;93724.88;;;22.97;48.32
49393;BME280;35268;42.642;23.308;2022-08-19T00:03:47;93726.44;;;22.94;48.61
49393;BME280;35268;42.642;23.308;2022-08-19T00:06:13;93730.31;;;22.90;48.19
49393;BME280;35268;42.642;23.308;2022-08-19T00:08:38;93721.03;;;22.87;48.29
49393;BME280;35268;42.642;23.308;2022-08-19T00:11:04;93725.31;;;22.81;48.36
49393;BME280;35268;42.642;23.308;2022-08-19T00:13:30;93717.56;;;22.79;48.13
49393;BME280;35268;42.642;23.308;2022-08-19T00:15:56;93724.56;;;22.77;48.64
49393;BME280;35268;42.642;23.308;2022-08-19T00:18:22;93733.09;;;22.75;48.64
49393;BME280;35268;42.642;23.308;2022-08-19T00:20:48;93731.19;;;22.72;46.80
49393;BME280;35268;42.642;23.308;2022-08-19T00:23:13;93736.59;;;22.76;46.30
49393;BME280;35268;42.642;23.308;2022-08-19T00:25:40;93743.56;;;22.77;46.19
49393;BME280;35268;42.642;23.308;2022-08-19T00:28:06;93739.31;;;22.76;46.33
49393;BME280;35268;42.642;23.308;2022-08-19T00:30:31;93734.28;;;22.78;45.85
49393;BME280;35268;42.642;23.308;2022-08-19T00:32:57;93738.91;;;22.81;46.83
49393;BME280;35268;42.642;23.308;2022-08-19T00:35:22;93731.13;;;22.79;45.89
49393;BME280;35268;42.642;23.308;2022-08-19T00:37:49;93731.94;;;22.80;46.05
49393;BME280;35268;42.642;23.308;2022-08-19T00:40:16;93731.94;;;22.80;46.79
49393;BME280;35268;42.642;23.308;2022-08-19T00:42:42;93737.38;;;22.80;46.45
49393;BME280;35268;42.642;23.308;2022-08-19T00:45:15;93728.03;;;22.81;46.77
49393;BME280;35268;42.642;23.308;2022-08-19T00:47:43;93727.28;;;22.77;47.76
49393;BME280;35268;42.642;23.308;2022-08-19T00:50:11;93732.75;;;22.70;48.70
49393;BME280;35268;42.642;23.308;2022-08-19T00:52:43;93725.38;;;22.67;48.85
49393;BME280;35268;42.642;23.308;2022-08-19T00:55:13;93721.91;;;22.62;49.06
49393;BME280;35268;42.642;23.308;2022-08-19T00:57:46;93728.91;;;22.60;49.15
49393;BME280;35268;42.642;23.308;2022-08-19T01:00:15;93719.59;;;22.54;49.54
49393;BME280;35268;42.642;23.308;2022-08-19T01:02:42;93721.16;;;22.44;50.02
49393;BME280;35268;42.642;23.308;2022-08-19T01:05:13;93723.88;;;22.44;49.81
49393;BME280;35268;42.642;23.308;2022-08-19T01:07:40;93720.41;;;22.36;49.81
49393;BME280;35268;42.642;23.308;2022-08-19T01:10:11;93725.44;;;22.31;49.86
49393;BME280;35268;42.642;23.308;2022-08-19T01:12:37;93721.59;;;22.28;50.31
49393;BME280;35268;42.642;23.308;2022-08-19T01:15:08;93722.78;;;22.23;50.11
49393;BME280;35268;42.642;23.308;2022-08-19T01:17:36;93722.72;;;22.20;50.37
49393;BME280;35268;42.642;23.308;2022-08-19T01:20:04;93715.00;;;22.11;50.42
49393;BME280;35268;42.642;23.308;2022-08-19T01:22:54;93709.56;;;22.08;50.37
49393;BME280;35268;42.642;23.308;2022-08-19T01:25:24;93726.66;;;22.04;50.11
49393;BME280;35268;42.642;23.308;2022-08-19T01:27:52;93718.88;;;22.03;50.23
49393;BME280;35268;42.642;23.308;2022-08-19T01:30:22;93714.22;;;22.00;50.10
49393;BME280;35268;42.642;23.308;2022-08-19T01:32:49;93717.34;;;21.98;50.35
49393;BME280;35268;42.642;23.308;2022-08-19T01:35:15;93721.59;;;21.99;49.82
49393;BME280;35268;42.642;23.308;2022-08-19T01:37:45;93722.75;;;22.02;49.40
49393;BME280;35268;42.642;23.308;2022-08-19T01:40:11;93725.84;;;22.04;49.58
49393;BME280;35268;42.642;23.308;2022-08-19T01:42:37;93718.88;;;22.03;50.01
49393;BME280;35268;42.642;23.308;2022-08-19T01:45:04;93734.78;;;22.01;50.11
49393;BME280;35268;42.642;23.308;2022-08-19T01:47:30;93727.41;;;22.01;49.81
49393;BME280;35268;42.642;23.308;2022-08-19T01:49:55;93730.91;;;21.98;49.48
49393;BME280;35268;42.642;23.308;2022-08-19T01:52:20;93728.19;;;21.95;49.49
49393;BME280;35268;42.642;23.308;2022-08-19T01:54:46;93723.91;;;21.94;49.75
49393;BME280;35268;42.642;23.308;2022-08-19T01:57:12;93725.88;;;21.93;49.71
49393;BME280;35268;42.642;23.308;2022-08-19T01:59:41;93720.84;;;21.88;50.35
49393;BME280;35268;42.642;23.308;2022-08-19T02:02:08;93727.81;;;21.86;50.33
49393;BME280;35268;42.642;23.308;2022-08-19T02:04:33;93723.16;;;21.82;51.09
49393;BME280;35268;42.642;23.308;2022-08-19T02:06:59;93726.25;;;21.81;51.63
49393;BME280;35268;42.642;23.308;2022-08-19T02:09:25;93722.00;;;21.73;51.69
49393;BME280;35268;42.642;23.308;2022-08-19T02:11:50;93724.69;;;21.69;52.03
49393;BME280;35268;42.642;23.308;2022-08-19T02:14:16;93720.81;;;21.67;52.38
49393;BME280;35268;42.642;23.308;2022-08-19T02:16:41;93729.75;;;21.60;52.48
49393;BME280;35268;42.642;23.308;2022-08-19T02:19:07;93722.75;;;21.52;52.05
49393;BME280;35268;42.642;23.308;2022-08-19T02:21:33;93729.34;;;21.51;51.01
49393;BME280;35268;42.642;23.308;2022-08-19T02:23:59;93722.38;;;21.50;50.85
49393;BME280;35268;42.642;23.308;2022-08-19T02:26:25;93725.81;;;21.39;50.98
49393;BME280;35268;42.642;23.308;2022-08-19T02:28:51;93728.13;;;21.37;51.75
49393;BME280;35268;42.642;23.308;2022-08-19T02:31:20;93718.81;;;21.35;51.50
49393;BME280;35268;42.642;23.308;2022-08-19T02:33:46;93720.38;;;21.32;52.46
49393;BME280;35268;42.642;23.308;2022-08-19T02:36:14;93726.94;;;21.35;52.84
49393;BME280;35268;42.642;23.308;2022-08-19T02:38:40;93719.59;;;21.35;52.46
49393;BME280;35268;42.642;23.308;2022-08-19T02:41:11;93722.69;;;21.34;52.53
49393;BME280;35268;42.642;23.308;2022-08-19T02:43:37;93726.56;;;21.29;52.96
49393;BME280;35268;42.642;23.308;2022-08-19T02:46:17;93726.94;;;21.24;53.10
49393;BME280;35268;42.642;23.308;2022-08-19T02:48:43;93728.47;;;21.18;53.31
49393;BME280;35268;42.642;23.308;2022-08-19T02:51:08;93725.75;;;21.14;53.48
49393;BME280;35268;42.642;23.308;2022-08-19T02:53:40;93732.72;;;21.12;53.58
49393;BME280;35268;42.642;23.308;2022-08-19T02:56:06;93741.22;;;21.10;53.31
49393;BME280;35268;42.642;23.308;2022-08-19T02:58:33;93744.31;;;21.09;53.66
49393;BME280;35268;42.642;23.308;2022-08-19T03:00:58;93742.38;;;21.06;53.85
49393;BME280;35268;42.642;23.308;2022-08-19T03:03:24;93746.59;;;20.99;54.24
49393;BME280;35268;42.642;23.308;2022-08-19T03:05:50;93746.59;;;20.96;54.68
49393;BME280;35268;42.642;23.308;2022-08-19T03:08:16;93753.56;;;20.93;55.36
49393;BME280;35268;42.642;23.308;2022-08-19T03:10:46;93734.16;;;20.88;55.64
49393;BME280;35268;42.642;23.308;2022-08-19T03:13:16;93738.78;;;20.80;55.71
49393;BME280;35268;42.642;23.308;2022-08-19T03:15:44;93729.50;;;20.81;56.01
49393;BME280;35268;42.642;23.308;2022-08-19T03:18:10;93731.41;;;20.73;56.27
49393;BME280;35268;42.642;23.308;2022-08-19T03:20:47;93736.81;;;20.70;56.36
49393;BME280;35268;42.642;23.308;2022-08-19T03:23:14;93724.78;;;20.63;56.44
49393;BME280;35268;42.642;23.308;2022-08-19T03:25:42;93719.38;;;20.60;56.64
49393;BME280;35268;42.642;23.308;2022-08-19T03:28:11;93724.72;;;20.56;56.89
49393;BME280;35268;42.642;23.308;2022-08-19T03:30:37;93728.59;;;20.55;56.91
49393;BME280;35268;42.642;23.308;2022-08-19T03:33:04;93733.22;;;20.51;57.24
49393;BME280;35268;42.642;23.308;2022-08-19T03:35:30;93734.38;;;20.50;57.24
49393;BME280;35268;42.642;23.308;2022-08-19T03:37:58;93723.50;;;20.43;57.68
49393;BME280;35268;42.642;23.308;2022-08-19T03:40:24;93730.44;;;20.40;57.40
49393;BME280;35268;42.642;23.308;2022-08-19T03:42:49;93726.56;;;20.38;57.48
49393;BME280;35268;42.642;23.308;2022-08-19T03:45:15;93733.13;;;20.37;57.96
49393;BME280;35268;42.642;23.308;2022-08-19T03:47:40;93741.22;;;20.33;57.83
49393;BME280;35268;42.642;23.308;2022-08-19T03:50:06;93744.69;;;20.30;58.19
49393;BME280;35268;42.642;23.308;2022-08-19T03:52:32;93754.72;;;20.26;58.01
49393;BME280;35268;42.642;23.308;2022-08-19T03:54:57;93762.84;;;20.26;58.65
49393;BME280;35268;42.642;23.308;2022-08-19T03:57:23;93757.44;;;20.26;58.01
49393;BME280;35268;42.642;23.308;2022-08-19T03:59:48;93753.19;;;20.29;56.87
49393;BME280;35268;42.642;23.308;2022-08-19T04:02:13;93757.84;;;20.32;56.29
49393;BME280;35268;42.642;23.308;2022-08-19T04:04:42;93763.31;;;20.39;56.30
49393;BME280;35268;42.642;23.308;2022-08-19T04:07:09;93762.56;;;20.42;55.87
49393;BME280;35268;42.642;23.308;2022-08-19T04:09:36;93765.66;;;20.44;56.25
49393;BME280;35268;42.642;23.308;2022-08-19T04:12:03;93766.84;;;20.50;56.16
49393;BME280;35268;42.642;23.308;2022-08-19T04:14:30;93768.78;;;20.50;56.75
49393;BME280;35268;42.642;23.308;2022-08-19T04:16:58;93772.31;;;20.57;57.37
49393;BME280;35268;42.642;23.308;2022-08-19T04:19:24;93768.13;;;20.60;57.54
49393;BME280;35268;42.642;23.308;2022-08-19T04:21:51;93769.69;;;20.64;57.54
49393;BME280;35268;42.642;23.308;2022-08-19T04:24:18;93768.94;;;20.71;57.40
49393;BME280;35268;42.642;23.308;2022-08-19T04:26:44;93767.78;;;20.72;57.97
49393;BME280;35268;42.642;23.308;2022-08-19T04:29:13;93779.00;;;20.78;57.93
49393;BME280;35268;42.642;23.308;2022-08-19T04:31:40;93776.72;;;20.83;58.30
49393;BME280;35268;42.642;23.308;2022-08-19T04:34:07;93774.78;;;20.84;58.21
49393;BME280;35268;42.642;23.308;2022-08-19T04:36:35;93774.06;;;20.91;58.17
49393;BME280;35268;42.642;23.308;2022-08-19T04:39:05;93766.34;;;21.00;57.19
49393;BME280;35268;42.642;23.308;2022-08-19T04:41:31;93775.66;;;21.06;56.85
49393;BME280;35268;42.642;23.308;2022-08-19T04:44:15;93762.13;;;21.13;56.97
49393;BME280;35268;42.642;23.308;2022-08-19T04:46:45;93764.47;;;21.22;56.36
49393;BME280;35268;42.642;23.308;2022-08-19T04:49:12;93773.81;;;21.32;56.28
49393;BME280;35268;42.642;23.308;2022-08-19T04:51:41;93776.53;;;21.39;56.76
49393;BME280;35268;42.642;23.308;2022-08-19T04:54:08;93775.44;;;21.43;56.33
49393;BME280;35268;42.642;23.308;2022-08-19T04:56:33;93779.31;;;21.50;55.61
49393;BME280;35268;42.642;23.308;2022-08-19T04:58:59;93780.88;;;21.54;55.34
49393;BME280;35268;42.642;23.308;2022-08-19T05:01:30;93772.72;;;21.61;54.89
49393;BME280;35268;42.642;23.308;2022-08-19T05:04:00;93775.44;;;21.65;54.74
49393;BME280;35268;42.642;23.308;2022-08-19T05:06:27;93772.75;;;21.72;54.78
49393;BME280;35268;42.642;23.308;2022-08-19T05:08:54;93790.19;;;21.78;54.71
49393;BME280;35268;42.642;23.308;2022-08-19T05:11:24;93785.94;;;21.81;54.93
49393;BME280;35268;42.642;23.308;2022-08-19T05:13:50;93780.16;;;21.86;54.64
49393;BME280;35268;42.642;23.308;2022-08-19T05:16:18;93784.03;;;21.92;55.39
49393;BME280;35268;42.642;23.308;2022-08-19T05:18:45;93777.81;;;21.99;54.89
49393;BME280;35268;42.642;23.308;2022-08-19T05:21:29;93781.69;;;22.05;53.60
49393;BME280;35268;42.642;23.308;2022-08-19T05:24:14;93782.06;;;22.14;52.49
49393;BME280;35268;42.642;23.308;2022-08-19T05:26:43;93786.31;;;22.22;52.54
49393;BME280;35268;42.642;23.308;2022-08-19T05:29:10;93788.69;;;22.28;51.98
49393;BME280;35268;42.642;23.308;2022-08-19T05:31:37;93786.75;;;22.35;52.90
49393;BME280;35268;42.642;23.308;2022-08-19T05:34:04;93785.94;;;22.38;51.78
49393;BME280;35268;42.642;23.308;2022-08-19T05:36:39;93790.63;;;22.38;49.67
49393;BME280;35268;42.642;23.308;2022-08-19T05:39:07;93779.00;;;22.34;50.54
49393;BME280;35268;42.642;23.308;2022-08-19T05:41:33;93785.19;;;22.38;51.48
49393;BME280;35268;42.642;23.308;2022-08-19T05:44:04;93794.88;;;22.32;51.71
49393;BME280;35268;42.642;23.308;2022-08-19T05:46:32;93780.56;;;22.35;51.48
49393;BME280;35268;42.642;23.308;2022-08-19T05:48:57;93791.00;;;22.40;51.92
49393;BME280;35268;42.642;23.308;2022-08-19T05:51:24;93792.53;;;22.44;52.37
49393;BME280;35268;42.642;23.308;2022-08-19T05:53:50;93785.97;;;22.49;52.76
49393;BME280;35268;42.642;23.308;2022-08-19T05:56:16;93792.53;;;22.55;52.08
49393;BME280;35268;42.642;23.308;2022-08-19T05:58:44;93786.69;;;22.64;52.41
49393;BME280;35268;42.642;23.308;2022-08-19T06:01:12;93782.81;;;22.69;52.99
49393;BME280;35268;42.642;23.308;2022-08-19T06:03:38;93786.28;;;22.80;52.46
49393;BME280;35268;42.642;23.308;2022-08-19T06:06:09;93797.88;;;22.88;51.49
49393;BME280;35268;42.642;23.308;2022-08-19T06:08:35;93786.22;;;22.98;50.80
49393;BME280;35268;42.642;23.308;2022-08-19T06:11:23;93799.03;;;23.08;52.05
49393;BME280;35268;42.642;23.308;2022-08-19T06:13:51;93799.38;;;23.14;51.71
49393;BME280;35268;42.642;23.308;2022-08-19T06:16:21;93790.03;;;23.22;50.60
49393;BME280;35268;42.642;23.308;2022-08-19T06:18:52;93797.34;;;23.32;50.80
49393;BME280;35268;42.642;23.308;2022-08-19T06:21:22;93793.84;;;23.39;50.21
49393;BME280;35268;42.642;23.308;2022-08-19T06:23:49;93791.09;;;23.42;49.34
49393;BME280;35268;42.642;23.308;2022-08-19T06:26:17;93789.13;;;23.47;49.06
49393;BME280;35268;42.642;23.308;2022-08-19T06:28:43;93793.72;;;23.60;49.57
49393;BME280;35268;42.642;23.308;2022-08-19T06:31:13;93795.59;;;23.74;48.91
49393;BME280;35268;42.642;23.308;2022-08-19T06:33:40;93796.69;;;23.88;49.72
49393;BME280;35268;42.642;23.308;2022-08-19T06:36:06;93810.22;;;24.02;48.81
49393;BME280;35268;42.642;23.308;2022-08-19T06:38:31;93798.84;;;24.11;47.95
49393;BME280;35268;42.642;23.308;2022-08-19T06:41:05;93797.19;;;24.24;47.55
49393;BME280;35268;42.642;23.308;2022-08-19T06:43:30;93804.47;;;24.38;46.75
49393;BME280;35268;42.642;23.308;2022-08-19T06:45:56;93802.47;;;24.42;46.57
49393;BME280;35268;42.642;23.308;2022-08-19T06:48:22;93798.53;;;24.54;45.86
49393;BME280;35268;42.642;23.308;2022-08-19T06:50:47;93801.50;;;24.67;45.92
49393;BME280;35268;42.642;23.308;2022-08-19T06:53:15;93801.81;;;24.76;45.92
49393;BME280;35268;42.642;23.308;2022-08-19T06:55:40;93799.72;;;24.87;45.71
49393;BME280;35268;42.642;23.308;2022-08-19T06:58:06;93805.09;;;24.98;45.55
49393;BME280;35268;42.642;23.308;2022-08-19T07:00:32;93806.56;;;25.06;44.99
49393;BME280;35268;42.642;23.308;2022-08-19T07:02:57;93809.91;;;25.17;44.78
49393;BME280;35268;42.642;23.308;2022-08-19T07:05:23;93804.78;;;25.27;44.27
49393;BME280;35268;42.642;23.308;2022-08-19T07:07:49;93804.69;;;25.34;44.37
49393;BME280;35268;42.642;23.308;2022-08-19T07:10:15;93808.94;;;25.38;44.41
49393;BME280;35268;42.642;23.308;2022-08-19T07:12:40;93806.88;;;25.46;44.62
49393;BME280;35268;42.642;23.308;2022-08-19T07:15:06;93804.22;;;25.42;44.42
49393;BME280;35268;42.642;23.308;2022-08-19T07:17:33;93805.22;;;25.52;44.63
49393;BME280;35268;42.642;23.308;2022-08-19T07:20:05;93812.22;;;25.57;44.06
49393;BME280;35268;42.642;23.308;2022-08-19T07:22:32;93812.22;;;25.57;43.94
49393;BME280;35268;42.642;23.308;2022-08-19T07:24:59;93816.03;;;25.63;44.27
49393;BME280;35268;42.642;23.308;2022-08-19T07:27:24;93808.56;;;25.67;43.66
49393;BME280;35268;42.642;23.308;2022-08-19T07:29:52;93806.56;;;25.71;43.21
49393;BME280;35268;42.642;23.308;2022-08-19T07:32:18;93811.13;;;25.78;43.11
49393;BME280;35268;42.642;23.308;2022-08-19T07:34:43;93812.22;;;25.84;43.25
49393;BME280;35268;42.642;23.308;2022-08-19T07:37:10;93806.97;;;25.97;43.03
49393;BME280;35268;42.642;23.308;2022-08-19T07:39:37;93809.63;;;26.04;42.57
49393;BME280;35268;42.642;23.308;2022-08-19T07:42:08;93813.31;;;26.17;42.85
49393;BME280;35268;42.642;23.308;2022-08-19T07:44:35;93812.75;;;26.30;42.39
49393;BME280;35268;42.642;23.308;2022-08-19T07:47:02;93799.31;;;26.39;42.18
49393;BME280;35268;42.642;23.308;2022-08-19T07:49:28;93804.94;;;26.52;41.84
49393;BME280;35268;42.642;23.308;2022-08-19T07:52:03;93813.41;;;26.61;41.60
49393;BME280;35268;42.642;23.308;2022-08-19T07:54:33;93813.78;;;26.63;41.14
49393;BME280;35268;42.642;23.308;2022-08-19T07:57:00;93807.34;;;26.73;41.58
49393;BME280;35268;42.642;23.308;2022-08-19T07:59:25;93811.84;;;26.84;42.33
49393;BME280;35268;42.642;23.308;2022-08-19T08:01:51;93812.09;;;26.93;40.21
49393;BME280;35268;42.642;23.308;2022-08-19T08:04:18;93810.88;;;26.94;40.61
49393;BME280;35268;42.642;23.308;2022-08-19T08:07:04;93818.97;;;27.01;40.69
49393;BME280;35268;42.642;23.308;2022-08-19T08:09:48;93809.34;;;27.13;39.59
49393;BME280;35268;42.642;23.308;2022-08-19T08:12:27;93805.25;;;27.25;39.91
49393;BME280;35268;42.642;23.308;2022-08-19T08:14:57;93803.50;;;27.34;40.01
49393;BME280;35268;42.642;23.308;2022-08-19T08:17:25;93802.22;;;27.39;39.82
49393;BME280;35268;42.642;23.308;2022-08-19T08:19:51;93805.25;;;27.45;39.95
49393;BME280;35268;42.642;23.308;2022-08-19T08:22:19;93805.41;;;27.54;39.49
49393;BME280;35268;42.642;23.308;2022-08-19T08:25:14;93795.44;;;27.64;38.47
49393;BME280;35268;42.642;23.308;2022-08-19T08:27:42;93793.69;;;27.73;38.18
49393;BME280;35268;42.642;23.308;2022-08-19T08:30:14;93799.69;;;27.85;37.64
49393;BME280;35268;42.642;23.308;2022-08-19T08:32:40;93800.25;;;27.96;36.47
49393;BME280;35268;42.642;23.308;2022-08-19T08:35:08;93791.59;;;27.97;34.73
49393;BME280;35268;42.642;23.308;2022-08-19T08:37:35;93793.41;;;28.04;34.64
49393;BME280;35268;42.642;23.308;2022-08-19T08:40:17;93795.31;;;28.07;35.64
49393;BME280;35268;42.642;23.308;2022-08-19T08:42:54;93788.13;;;28.13;34.38
49393;BME280;35268;42.642;23.308;2022-08-19T08:45:24;93797.97;;;28.27;34.00
49393;BME280;35268;42.642;23.308;2022-08-19T08:47:51;93787.94;;;28.37;34.03
49393;BME280;35268;42.642;23.308;2022-08-19T08:50:23;93789.28;;;28.45;32.68
49393;BME280;35268;42.642;23.308;2022-08-19T08:52:53;93793.44;;;28.53;33.20
49393;BME280;35268;42.642;23.308;2022-08-19T08:55:26;93783.06;;;28.61;32.90
49393;BME280;35268;42.642;23.308;2022-08-19T08:57:57;93783.09;;;28.74;32.04
49393;BME280;35268;42.642;23.308;2022-08-19T09:00:30;93775.28;;;28.89;30.42
49393;BME280;35268;42.642;23.308;2022-08-19T09:02:57;93776.72;;;28.93;31.53
49393;BME280;35268;42.642;23.308;2022-08-19T09:05:28;93777.22;;;29.05;32.28
49393;BME280;35268;42.642;23.308;2022-08-19T09:08:22;93769.06;;;29.17;30.66
49393;BME280;35268;42.642;23.308;2022-08-19T09:10:54;93775.13;;;29.25;31.38
49393;BME280;35268;42.642;23.308;2022-08-19T09:16:24;93772.69;;;29.27;31.89
49393;BME280;35268;42.642;23.308;2022-08-19T09:18:55;93769.97;;;29.40;31.24
49393;BME280;35268;42.642;23.308;2022-08-19T09:21:23;93763.31;;;29.54;31.10
49393;BME280;35268;42.642;23.308;2022-08-19T09:23:51;93757.91;;;29.63;30.57
49393;BME280;35268;42.642;23.308;2022-08-19T09:26:21;93767.31;;;29.78;30.13
49393;BME280;35268;42.642;23.308;2022-08-19T09:28:50;93757.75;;;29.83;29.51
49393;BME280;35268;42.642;23.308;2022-08-19T09:31:21;93750.50;;;29.89;29.67
49393;BME280;35268;42.642;23.308;2022-08-19T09:33:48;93753.78;;;29.97;29.78
49393;BME280;35268;42.642;23.308;2022-08-19T09:36:16;93742.88;;;30.06;29.10
49393;BME280;35268;42.642;23.308;2022-08-19T09:38:42;93753.56;;;30.17;28.69
49393;BME280;35268;42.642;23.308;2022-08-19T09:41:11;93751.22;;;30.28;27.32
49393;BME280;35268;42.642;23.308;2022-08-19T09:43:39;93755.63;;;30.38;27.89
49393;BME280;35268;42.642;23.308;2022-08-19T09:46:05;93750.22;;;30.48;28.01
49393;BME280;35268;42.642;23.308;2022-08-19T09:48:32;93751.09;;;30.57;27.28
49393;BME280;35268;42.642;23.308;2022-08-19T09:51:19;93739.91;;;30.74;26.86
49393;BME280;35268;42.642;23.308;2022-08-19T09:53:46;93745.97;;;30.69;26.45
49393;BME280;35268;42.642;23.308;2022-08-19T09:56:12;93746.38;;;30.80;26.79
49393;BME280;35268;42.642;23.308;2022-08-19T09:58:39;93739.00;;;30.90;27.60
49393;BME280;35268;42.642;23.308;2022-08-19T10:01:06;93742.25;;;30.97;26.63
49393;BME280;35268;42.642;23.308;2022-08-19T10:03:34;93736.31;;;30.99;25.55
49393;BME280;35268;42.642;23.308;2022-08-19T10:06:03;93732.78;;;30.98;25.81
49393;BME280;35268;42.642;23.308;2022-08-19T10:08:35;93726.06;;;30.99;26.02
49393;BME280;35268;42.642;23.308;2022-08-19T10:11:02;93730.47;;;30.97;26.73
49393;BME280;35268;42.642;23.308;2022-08-19T10:13:30;93731.72;;;30.96;26.12
49393;BME280;35268;42.642;23.308;2022-08-19T10:16:07;93722.63;;;31.08;26.14
49393;BME280;35268;42.642;23.308;2022-08-19T10:18:34;93730.16;;;31.17;25.78
49393;BME280;35268;42.642;23.308;2022-08-19T10:21:10;93719.78;;;31.21;25.63
49393;BME280;35268;42.642;23.308;2022-08-19T10:23:38;93718.94;;;31.33;26.28
49393;BME280;35268;42.642;23.308;2022-08-19T10:26:07;93718.34;;;31.38;24.71
49393;BME280;35268;42.642;23.308;2022-08-19T10:28:34;93720.88;;;31.46;24.66
49393;BME280;35268;42.642;23.308;2022-08-19T10:31:07;93710.72;;;31.43;24.63
49393;BME280;35268;42.642;23.308;2022-08-19T10:33:35;93708.63;;;31.47;24.22
49393;BME280;35268;42.642;23.308;2022-08-19T10:36:04;93704.66;;;31.48;25.04
49393;BME280;35268;42.642;23.308;2022-08-19T10:38:30;93711.75;;;31.58;24.61
49393;BME280;35268;42.642;23.308;2022-08-19T10:40:56;93708.41;;;31.63;24.88
49393;BME280;35268;42.642;23.308;2022-08-19T10:43:22;93708.75;;;31.74;25.51
49393;BME280;35268;42.642;23.308;2022-08-19T10:45:54;93700.38;;;31.87;25.27
49393;BME280;35268;42.642;23.308;2022-08-19T10:48:24;93703.28;;;31.93;23.78
49393;BME280;35268;42.642;23.308;2022-08-19T10:50:50;93706.56;;;32.01;23.70
49393;BME280;35268;42.642;23.308;2022-08-19T10:53:34;93698.91;;;32.05;22.63
49393;BME280;35268;42.642;23.308;2022-08-19T10:55:59;93701.00;;;31.91;23.24
49393;BME280;35268;42.642;23.308;2022-08-19T10:58:43;93698.72;;;31.90;23.84
49393;BME280;35268;42.642;23.308;2022-08-19T11:01:09;93694.72;;;31.91;24.25
49393;BME280;35268;42.642;23.308;2022-08-19T11:03:35;93697.91;;;31.80;23.59
49393;BME280;35268;42.642;23.308;2022-08-19T11:06:02;93711.19;;;31.72;24.17
49393;BME280;35268;42.642;23.308;2022-08-19T11:08:28;93703.88;;;31.78;23.91
49393;BME280;35268;42.642;23.308;2022-08-19T11:10:58;93701.41;;;31.81;24.61
49393;BME280;35268;42.642;23.308;2022-08-19T11:13:31;93701.47;;;31.90;24.65
49393;BME280;35268;42.642;23.308;2022-08-19T11:16:00;93684.00;;;31.93;24.61
49393;BME280;35268;42.642;23.308;2022-08-19T11:18:26;93695.34;;;31.95;23.83
49393;BME280;35268;42.642;23.308;2022-08-19T11:20:52;93701.22;;;32.06;24.87
49393;BME280;35268;42.642;23.308;2022-08-19T11:23:17;93693.28;;;32.17;23.60
49393;BME280;35268;42.642;23.308;2022-08-19T11:25:43;93697.28;;;32.16;23.41
49393;BME280;35268;42.642;23.308;2022-08-19T11:28:10;93694.06;;;32.18;23.40
49393;BME280;35268;42.642;23.308;2022-08-19T11:30:37;93683.97;;;32.24;24.09
49393;BME280;35268;42.642;23.308;2022-08-19T11:33:03;93692.22;;;32.33;24.68
49393;BME280;35268;42.642;23.308;2022-08-19T11:35:28;93680.34;;;32.55;23.62
49393;BME280;35268;42.642;23.308;2022-08-19T11:37:54;93679.25;;;32.62;24.64
49393;BME280;35268;42.642;23.308;2022-08-19T11:40:21;93688.59;;;32.83;23.99
49393;BME280;35268;42.642;23.308;2022-08-19T11:42:46;93675.06;;;33.03;23.91
49393;BME280;35268;42.642;23.308;2022-08-19T11:45:25;93670.31;;;33.22;24.35
49393;BME280;35268;42.642;23.308;2022-08-19T11:47:52;93673.47;;;33.39;23.76
49393;BME280;35268;42.642;23.308;2022-08-19T11:50:17;93662.09;;;33.46;22.61
49393;BME280;35268;42.642;23.308;2022-08-19T11:52:43;93668.84;;;33.45;23.88
49393;BME280;35268;42.642;23.308;2022-08-19T11:55:10;93664.38;;;33.57;23.90
49393;BME280;35268;42.642;23.308;2022-08-19T11:57:35;93659.09;;;33.77;23.72
49393;BME280;35268;42.642;23.308;2022-08-19T12:00:02;93667.16;;;33.90;22.92
49393;BME280;35268;42.642;23.308;2022-08-19T12:02:31;93663.50;;;34.08;22.67
49393;BME280;35268;42.642;23.308;2022-08-19T12:04:57;93656.44;;;34.16;22.60
49393;BME280;35268;42.642;23.308;2022-08-19T12:07:22;93656.59;;;34.37;22.01
49393;BME280;35268;42.642;23.308;2022-08-19T12:09:48;93649.41;;;34.54;22.39
49393;BME280;35268;42.642;23.308;2022-08-19T12:12:14;93639.41;;;34.72;22.42
49393;BME280;35268;42.642;23.308;2022-08-19T12:14:39;93643.38;;;34.95;22.25
49393;BME280;35268;42.642;23.308;2022-08-19T12:17:04;93640.97;;;35.03;21.92
49393;BME280;35268;42.642;23.308;2022-08-19T12:19:33;93645.00;;;35.02;21.22
49393;BME280;35268;42.642;23.308;2022-08-19T12:22:00;93638.88;;;34.97;20.60
49393;BME280;35268;42.642;23.308;2022-08-19T12:24:30;93635.06;;;35.10;20.19
49393;BME280;35268;42.642;23.308;2022-08-19T12:26:58;93627.69;;;35.07;19.84
49393;BME280;35268;42.642;23.308;2022-08-19T12:29:24;93625.50;;;35.11;21.16
49393;BME280;35268;42.642;23.308;2022-08-19T12:31:54;93627.81;;;35.27;21.98
49393;BME280;35268;42.642;23.308;2022-08-19T12:34:19;93621.50;;;35.42;20.54
49393;BME280;35268;42.642;23.308;2022-08-19T12:36:45;93619.91;;;35.20;19.96
49393;BME280;35268;42.642;23.308;2022-08-19T12:39:10;93615.31;;;35.17;20.24
49393;BME280;35268;42.642;23.308;2022-08-19T12:41:37;93617.13;;;35.20;20.59
49393;BME280;35268;42.642;23.308;2022-08-19T12:44:03;93613.59;;;35.34;20.37
49393;BME280;35268;42.642;23.308;2022-08-19T12:46:28;93604.66;;;35.45;21.59
49393;BME280;35268;42.642;23.308;2022-08-19T12:48:53;93607.63;;;35.56;21.30
49393;BME280;35268;42.642;23.308;2022-08-19T12:51:19;93611.91;;;35.72;20.69
49393;BME280;35268;42.642;23.308;2022-08-19T12:53:46;93600.69;;;35.82;20.36
49393;BME280;35268;42.642;23.308;2022-08-19T12:56:12;93606.72;;;36.01;20.14
49393;BME280;35268;42.642;23.308;2022-08-19T12:58:40;93602.09;;;36.12;21.31